Time;durP1;ratioP1;P1;durP2;ratioP2;P2;SDS_P1;SDS_P2;PMS_P1;PMS_P2;Temp;Humidity;BMP_temperature;BMP_pressure;BME280_temperature;BME280_humidity;BME280_pressure;Samples;Min_cycle;Max_cycle;Signal;HPM_P1;HPM_P2
2023/10/07 00:00:49;;;;;;;7.47;4.50;;;15.90;93.80;;;;;;5055399;28;20457;-56
2023/10/07 00:03:17;;;;;;;8.17;4.77;;;15.80;94.00;;;;;;5055051;28;20472;-56
2023/10/07 00:05:46;;;;;;;6.30;4.10;;;15.80;94.30;;;;;;5054978;28;20442;-56
2023/10/07 00:08:16;;;;;;;8.43;4.30;;;15.90;94.30;;;;;;5054866;28;20450;-56
2023/10/07 00:10:46;;;;;;;10.00;5.03;;;15.90;94.30;;;;;;5054825;28;20519;-57
2023/10/07 00:13:13;;;;;;;6.43;4.20;;;15.90;94.50;;;;;;5054607;28;20422;-57
2023/10/07 00:15:43;;;;;;;10.03;4.43;;;15.90;94.50;;;;;;5054780;28;20524;-57
2023/10/07 00:18:12;;;;;;;8.50;4.60;;;15.80;94.40;;;;;;5054757;28;20446;-56
2023/10/07 00:20:47;;;;;;;10.20;4.90;;;15.80;94.70;;;;;;5054620;28;20473;-56
2023/10/07 00:23:18;;;;;;;6.67;4.60;;;15.80;94.80;;;;;;5054629;28;20516;-56
2023/10/07 00:25:49;;;;;;;8.53;4.50;;;15.70;95.00;;;;;;5053674;28;20434;-56
2023/10/07 00:28:19;;;;;;;13.07;5.50;;;15.70;95.30;;;;;;5054590;28;20426;-56
2023/10/07 00:30:46;;;;;;;8.73;4.90;;;15.70;95.50;;;;;;5054023;28;21056;-56
2023/10/07 00:33:14;;;;;;;6.70;4.13;;;15.60;95.60;;;;;;5054134;28;20473;-56
2023/10/07 00:35:42;;;;;;;10.77;4.70;;;15.70;95.60;;;;;;5054355;28;20853;-56
2023/10/07 00:38:14;;;;;;;7.53;4.53;;;15.70;95.60;;;;;;5054354;28;20495;-56
2023/10/07 00:40:52;;;;;;;9.50;4.70;;;15.70;95.70;;;;;;5053943;28;20843;-56
2023/10/07 00:43:26;;;;;;;6.40;4.17;;;15.70;95.70;;;;;;5054247;28;20430;-56
2023/10/07 00:45:59;;;;;;;7.80;4.13;;;15.70;95.70;;;;;;5054265;28;20422;-56
2023/10/07 00:48:38;;;;;;;7.07;4.40;;;15.70;95.80;;;;;;5054254;28;20479;-56
2023/10/07 00:51:11;;;;;;;7.60;4.93;;;15.80;95.90;;;;;;5053879;28;20838;-56
2023/10/07 00:53:45;;;;;;;9.53;4.77;;;15.80;95.90;;;;;;5053713;28;21081;-56
2023/10/07 00:56:13;;;;;;;10.80;4.37;;;15.80;96.00;;;;;;5053778;28;20919;-56
2023/10/07 00:58:46;;;;;;;9.60;5.17;;;15.80;95.90;;;;;;5053772;28;20448;-57
2023/10/07 01:01:14;;;;;;;9.00;4.47;;;15.80;95.90;;;;;;5054422;28;20568;-56
2023/10/07 01:03:48;;;;;;;7.57;4.90;;;15.70;96.00;;;;;;5053884;28;20442;-56
2023/10/07 01:06:25;;;;;;;12.50;5.20;;;15.70;96.10;;;;;;5053829;28;20426;-57
2023/10/07 01:08:58;;;;;;;7.43;4.47;;;15.70;96.30;;;;;;5054084;28;20433;-56
2023/10/07 01:11:29;;;;;;;9.27;4.60;;;15.60;96.40;;;;;;5053567;28;20507;-56
2023/10/07 01:13:59;;;;;;;7.30;4.80;;;15.60;96.50;;;;;;5053546;28;20511;-56
2023/10/07 01:16:34;;;;;;;10.80;5.07;;;15.70;96.60;;;;;;5053413;28;20939;-56
2023/10/07 01:19:13;;;;;;;8.00;4.73;;;15.60;96.50;;;;;;5053739;28;20461;-56
2023/10/07 01:21:51;;;;;;;10.20;5.33;;;15.60;96.50;;;;;;5053802;28;20509;-56
2023/10/07 01:24:33;;;;;;;9.90;5.10;;;15.70;96.60;;;;;;5053369;28;20900;-56
2023/10/07 01:27:06;;;;;;;10.17;4.87;;;15.70;96.60;;;;;;5053606;28;20433;-56
2023/10/07 01:29:34;;;;;;;8.33;4.50;;;15.70;96.70;;;;;;5053700;28;20470;-57
2023/10/07 01:32:04;;;;;;;8.63;4.83;;;15.60;96.80;;;;;;5053619;28;20907;-56
2023/10/07 01:34:35;;;;;;;11.90;5.00;;;15.60;97.10;;;;;;5053403;28;20485;-57
2023/10/07 01:37:05;;;;;;;10.83;4.87;;;15.60;97.10;;;;;;5053228;28;20426;-57
2023/10/07 01:39:40;;;;;;;10.10;5.27;;;15.60;97.10;;;;;;5053565;28;20519;-57
2023/10/07 01:42:07;;;;;;;11.63;4.93;;;15.50;97.40;;;;;;5053417;28;20433;-56
2023/10/07 01:44:39;;;;;;;11.87;5.00;;;15.40;97.50;;;;;;5052834;28;20798;-57
2023/10/07 01:47:16;;;;;;;12.87;5.50;;;15.40;97.60;;;;;;5054132;28;20512;-57
2023/10/07 01:49:43;;;;;;;10.53;5.30;;;15.50;97.70;;;;;;5053128;28;20523;-57
2023/10/07 01:52:11;;;;;;;7.73;5.03;;;15.40;97.70;;;;;;5052790;28;20457;-57
2023/10/07 01:54:41;;;;;;;9.03;5.00;;;15.50;97.90;;;;;;5053109;28;20480;-56
2023/10/07 01:57:11;;;;;;;8.80;5.00;;;15.50;97.90;;;;;;5053176;28;20496;-56
2023/10/07 01:59:38;;;;;;;11.83;4.73;;;15.50;97.80;;;;;;5053199;28;20476;-57
2023/10/07 02:02:06;;;;;;;8.73;5.70;;;15.50;97.80;;;;;;5053331;28;20452;-57
2023/10/07 02:04:33;;;;;;;7.10;5.63;;;15.50;97.80;;;;;;5053126;28;20438;-57
2023/10/07 02:07:00;;;;;;;13.83;6.37;;;15.50;97.90;;;;;;5053114;28;20453;-57
2023/10/07 02:09:27;;;;;;;10.27;5.77;;;15.40;98.10;;;;;;5052983;28;20494;-56
2023/10/07 02:11:57;;;;;;;8.87;5.50;;;15.50;98.20;;;;;;5053079;28;20450;-56
2023/10/07 02:14:25;;;;;;;8.40;5.20;;;15.50;98.20;;;;;;5052855;28;20840;-56
2023/10/07 02:16:53;;;;;;;12.17;6.43;;;15.50;98.30;;;;;;5053193;28;20446;-56
2023/10/07 02:19:28;;;;;;;15.40;6.23;;;15.40;98.40;;;;;;5052882;28;20446;-56
2023/10/07 02:21:59;;;;;;;11.90;6.03;;;15.40;98.60;;;;;;5053060;28;20437;-57
2023/10/07 02:24:29;;;;;;;17.27;6.60;;;15.30;98.80;;;;;;5052875;28;20517;-56
2023/10/07 02:27:04;;;;;;;10.50;6.40;;;15.30;99.10;;;;;;5052921;28;20449;-56
2023/10/07 02:29:31;;;;;;;11.67;6.60;;;15.30;99.00;;;;;;5052871;28;20876;-56
2023/10/07 02:32:08;;;;;;;12.70;7.20;;;15.30;99.20;;;;;;5052537;28;20940;-56
2023/10/07 02:34:34;;;;;;;9.27;6.13;;;15.30;99.20;;;;;;5058348;28;21076;-56
2023/10/07 02:37:12;;;;;;;11.00;6.57;;;15.30;99.30;;;;;;5072845;28;20451;-56
2023/10/07 02:39:46;;;;;;;10.90;7.00;;;15.40;99.40;;;;;;5072729;28;20551;-57
2023/10/07 02:42:21;;;;;;;13.37;6.47;;;15.40;99.30;;;;;;5072754;28;20429;-56
2023/10/07 02:44:54;;;;;;;14.77;6.87;;;15.40;99.30;;;;;;5072676;28;20480;-57
2023/10/07 02:47:21;;;;;;;8.57;5.77;;;15.40;99.30;;;;;;5072772;28;20429;-57
2023/10/07 02:49:49;;;;;;;14.47;7.20;;;15.40;99.30;;;;;;5075110;28;20476;-57
2023/10/07 02:52:20;;;;;;;10.27;6.63;;;15.40;99.40;;;;;;5076406;28;20882;-57
2023/10/07 02:55:05;;;;;;;10.83;6.27;;;15.40;99.40;;;;;;5076292;28;20467;-57
2023/10/07 02:57:39;;;;;;;11.97;6.87;;;15.40;99.50;;;;;;5076343;28;20441;-57
2023/10/07 03:00:28;;;;;;;14.83;6.60;;;15.40;99.70;;;;;;5076200;28;20456;-57
2023/10/07 03:03:10;;;;;;;12.53;7.60;;;15.30;99.80;;;;;;5076114;28;20436;-56
2023/10/07 03:05:43;;;;;;;15.87;7.17;;;15.40;99.90;;;;;;5076136;28;20429;-56
2023/10/07 03:08:19;;;;;;;12.37;8.20;;;15.40;99.90;;;;;;5076116;28;20425;-56
2023/10/07 03:10:54;;;;;;;16.13;7.60;;;15.50;99.90;;;;;;5075970;28;20460;-56
2023/10/07 03:13:23;;;;;;;13.60;7.60;;;15.50;99.90;;;;;;5076006;28;20451;-56
2023/10/07 03:16:27;;;;;;;13.80;7.60;;;15.50;99.90;;;;;;5076009;28;20484;-57
2023/10/07 03:18:38;;;;;;;12.13;7.50;;;15.50;99.90;;;;;;5075562;28;20884;-57
2023/10/07 03:21:10;;;;;;;11.60;7.50;;;15.60;99.90;;;;;;5075453;28;21108;-56
2023/10/07 03:23:45;;;;;;;17.10;7.03;;;15.60;99.90;;;;;;5075481;28;20915;-56
2023/10/07 03:26:13;;;;;;;10.13;7.67;;;15.50;99.90;;;;;;5075758;28;20834;-57
2023/10/07 03:28:51;;;;;;;13.90;7.13;;;15.60;99.90;;;;;;5075786;28;20453;-56
2023/10/07 03:31:20;;;;;;;11.30;6.83;;;15.60;99.90;;;;;;5075241;28;20985;-56
2023/10/07 03:33:51;;;;;;;14.10;8.27;;;15.60;99.90;;;;;;5075639;28;20472;-57
2023/10/07 03:36:40;;;;;;;9.03;7.27;;;15.70;99.90;;;;;;5075539;28;20468;-57
2023/10/07 03:39:22;;;;;;;19.70;9.03;;;15.70;99.90;;;;;;5075182;28;20968;-56
2023/10/07 03:41:52;;;;;;;9.73;8.03;;;15.70;99.90;;;;;;5075546;28;20448;-56
2023/10/07 03:44:22;;;;;;;14.27;8.50;;;15.70;99.90;;;;;;5076618;28;20807;-57
2023/10/07 03:46:54;;;;;;;11.40;7.97;;;15.70;99.90;;;;;;5075115;28;20874;-57
2023/10/07 03:49:22;;;;;;;14.67;7.70;;;15.70;99.90;;;;;;5075371;28;20619;-57
2023/10/07 03:51:58;;;;;;;14.63;8.40;;;15.70;99.90;;;;;;5074951;28;20484;-57
2023/10/07 03:54:29;;;;;;;14.17;6.90;;;15.70;99.90;;;;;;5075109;28;20611;-57
2023/10/07 03:56:56;;;;;;;13.57;8.60;;;15.70;99.90;;;;;;5075525;28;20470;-57
2023/10/07 03:59:25;;;;;;;13.70;8.03;;;15.70;99.90;;;;;;5074853;28;20793;-57
2023/10/07 04:01:53;;;;;;;12.73;8.30;;;15.80;99.90;;;;;;5074940;28;20463;-57
2023/10/07 04:04:22;;;;;;;11.20;7.00;;;15.80;99.90;;;;;;5074977;28;20490;-56
2023/10/07 04:06:49;;;;;;;11.50;7.00;;;15.80;99.90;;;;;;5075152;28;20491;-56
2023/10/07 04:09:16;;;;;;;11.70;6.60;;;15.80;99.90;;;;;;5074547;28;20440;-57
2023/10/07 04:11:48;;;;;;;10.30;7.77;;;15.80;99.90;;;;;;5074812;28;20452;-56
2023/10/07 04:14:22;;;;;;;14.23;6.63;;;15.90;99.90;;;;;;5074829;28;20491;-56
2023/10/07 04:16:52;;;;;;;8.43;7.20;;;15.80;99.90;;;;;;5074792;28;20498;-56
2023/10/07 04:19:34;;;;;;;11.17;7.10;;;15.80;99.90;;;;;;5074605;28;20448;-56
2023/10/07 04:22:03;;;;;;;10.90;7.30;;;15.80;99.90;;;;;;5074763;28;20425;-56
2023/10/07 04:24:30;;;;;;;18.97;7.90;;;15.80;99.90;;;;;;5074794;28;20449;-56
2023/10/07 04:27:02;;;;;;;11.17;7.53;;;15.80;99.90;;;;;;5074830;28;20440;-56
2023/10/07 04:29:30;;;;;;;12.17;7.53;;;15.70;99.90;;;;;;5074600;28;20461;-56
2023/10/07 04:32:05;;;;;;;15.50;7.70;;;15.80;99.90;;;;;;5074518;28;20445;-56
2023/10/07 04:34:45;;;;;;;11.27;7.00;;;15.80;99.90;;;;;;5074176;28;20438;-57
2023/10/07 04:37:14;;;;;;;11.93;6.97;;;15.80;99.90;;;;;;5074582;28;20421;-57
2023/10/07 04:40:27;;;;;;;11.30;7.63;;;15.80;99.90;;;;;;5074339;28;20475;-57
2023/10/07 04:42:36;;;;;;;10.37;6.50;;;15.90;99.90;;;;;;5073960;28;20490;-57
2023/10/07 04:45:22;;;;;;;12.50;7.30;;;15.90;99.90;;;;;;5074238;28;20521;-56
2023/10/07 04:47:57;;;;;;;13.60;8.00;;;15.90;99.90;;;;;;5074078;28;20915;-56
2023/10/07 04:50:33;;;;;;;10.47;7.70;;;16.00;99.90;;;;;;5073978;28;20579;-56
2023/10/07 04:53:04;;;;;;;11.23;7.17;;;15.90;99.90;;;;;;5074172;28;20437;-55
2023/10/07 04:55:32;;;;;;;7.53;6.73;;;16.00;99.90;;;;;;5073811;28;20473;-56
2023/10/07 04:58:02;;;;;;;14.27;7.97;;;16.00;99.90;;;;;;5073930;28;20445;-56
2023/10/07 05:00:35;;;;;;;18.90;10.63;;;15.90;99.90;;;;;;5074098;28;20472;-56
2023/10/07 05:03:08;;;;;;;8.90;6.50;;;15.90;99.90;;;;;;5074185;28;20425;-56
2023/10/07 05:05:34;;;;;;;11.73;7.07;;;16.00;99.90;;;;;;5073928;28;20512;-56
2023/10/07 05:08:10;;;;;;;12.27;6.90;;;16.00;99.90;;;;;;5073801;28;20510;-56
2023/10/07 05:10:38;;;;;;;14.63;6.10;;;16.00;99.90;;;;;;5073775;28;20477;-56
2023/10/07 05:13:07;;;;;;;9.03;6.40;;;16.00;99.90;;;;;;5073188;28;20449;-56
2023/10/07 05:15:36;;;;;;;13.10;6.67;;;16.10;99.90;;;;;;5073670;28;20504;-56
2023/10/07 05:18:04;;;;;;;8.67;6.33;;;16.00;99.90;;;;;;5073658;28;20444;-56
2023/10/07 05:20:33;;;;;;;13.93;7.40;;;16.10;99.90;;;;;;5073635;28;20496;-56
2023/10/07 05:23:02;;;;;;;11.33;7.13;;;16.10;99.90;;;;;;5073572;28;20445;-56
2023/10/07 05:25:29;;;;;;;10.43;6.37;;;16.10;99.90;;;;;;5073659;28;20895;-56
2023/10/07 05:27:56;;;;;;;9.43;6.60;;;16.10;99.90;;;;;;5073750;28;20444;-56
2023/10/07 05:30:23;;;;;;;11.30;5.90;;;16.20;99.90;;;;;;5073660;28;20831;-56
2023/10/07 05:32:49;;;;;;;10.40;6.20;;;16.20;99.90;;;;;;5073497;28;20528;-56
2023/10/07 05:35:18;;;;;;;8.77;6.47;;;16.20;99.90;;;;;;5060627;28;20481;-56
2023/10/07 05:37:45;;;;;;;12.97;6.60;;;16.20;99.90;;;;;;5053366;28;20456;-56
2023/10/07 05:40:16;;;;;;;11.73;6.80;;;16.20;99.90;;;;;;5053299;28;20461;-56
2023/10/07 05:42:43;;;;;;;12.23;6.27;;;16.20;99.90;;;;;;5053432;28;20430;-56
2023/10/07 05:45:10;;;;;;;6.73;5.63;;;16.20;99.90;;;;;;5052967;28;20791;-56
2023/10/07 05:47:37;;;;;;;12.63;7.00;;;16.30;99.90;;;;;;5053272;28;20445;-56
2023/10/07 05:50:05;;;;;;;9.97;6.87;;;16.30;99.90;;;;;;5053127;28;20479;-56
2023/10/07 05:52:35;;;;;;;8.50;6.17;;;16.30;99.90;;;;;;5053288;28;20434;-56
2023/10/07 05:55:02;;;;;;;13.27;5.70;;;16.20;99.90;;;;;;5053096;28;20491;-56
2023/10/07 05:57:29;;;;;;;7.90;5.70;;;16.30;99.90;;;;;;5053175;28;20456;-56
2023/10/07 05:59:55;;;;;;;11.90;5.90;;;16.30;99.90;;;;;;5053075;28;20469;-56
2023/10/07 06:02:23;;;;;;;9.40;5.10;;;16.30;99.90;;;;;;5053044;28;20491;-56
2023/10/07 06:04:49;;;;;;;9.13;6.00;;;16.20;99.90;;;;;;5053183;28;20499;-56
2023/10/07 06:07:20;;;;;;;17.23;5.63;;;16.20;99.90;;;;;;5052963;28;20457;-56
2023/10/07 06:09:48;;;;;;;13.73;5.57;;;16.20;99.90;;;;;;5053052;28;20515;-56
2023/10/07 06:12:15;;;;;;;8.00;5.30;;;16.20;99.90;;;;;;5053141;28;20448;-56
2023/10/07 06:14:42;;;;;;;12.37;5.33;;;16.20;99.90;;;;;;5052920;28;20453;-56
2023/10/07 06:17:11;;;;;;;14.53;5.63;;;16.30;99.90;;;;;;5052895;28;20890;-56
2023/10/07 06:19:38;;;;;;;16.93;7.00;;;16.30;99.90;;;;;;5052587;28;21018;-56
2023/10/07 06:22:11;;;;;;;9.77;5.97;;;16.30;99.90;;;;;;5052955;28;20447;-55
2023/10/07 06:24:39;;;;;;;8.67;5.70;;;16.30;99.90;;;;;;5054548;28;20429;-56
2023/10/07 06:27:11;;;;;;;7.70;5.53;;;16.30;99.90;;;;;;5056906;28;20452;-56
2023/10/07 06:29:41;;;;;;;10.13;5.40;;;16.30;99.90;;;;;;5057111;28;20465;-56
2023/10/07 06:32:22;;;;;;;12.50;5.77;;;16.30;99.90;;;;;;5056773;28;20477;-56
2023/10/07 06:34:51;;;;;;;8.03;6.13;;;16.30;99.90;;;;;;5056825;28;20464;-56
2023/10/07 06:37:25;;;;;;;9.80;5.23;;;16.40;99.90;;;;;;5056398;28;20994;-56
2023/10/07 06:39:52;;;;;;;13.30;5.40;;;16.40;99.90;;;;;;5056533;28;20461;-56
2023/10/07 06:42:24;;;;;;;9.43;5.57;;;16.40;99.90;;;;;;5056878;28;20445;-56
2023/10/07 06:44:53;;;;;;;8.70;4.97;;;16.40;99.90;;;;;;5056509;28;20426;-56
2023/10/07 06:47:21;;;;;;;10.70;5.77;;;16.50;99.90;;;;;;5056463;28;20441;-56
2023/10/07 06:49:48;;;;;;;13.20;6.00;;;16.50;99.90;;;;;;5056330;28;20591;-56
2023/10/07 06:52:16;;;;;;;9.47;5.27;;;16.50;99.90;;;;;;5056305;28;20445;-56
2023/10/07 06:54:42;;;;;;;11.30;5.43;;;16.50;99.90;;;;;;5056344;28;20445;-56
2023/10/07 06:57:10;;;;;;;10.30;4.90;;;16.60;99.90;;;;;;5056432;28;20481;-56
2023/10/07 06:59:40;;;;;;;11.00;5.17;;;16.60;99.90;;;;;;5056224;28;20844;-56
2023/10/07 07:02:10;;;;;;;6.13;5.40;;;16.60;99.90;;;;;;5056510;28;20425;-56
2023/10/07 07:04:38;;;;;;;14.03;5.93;;;16.70;99.90;;;;;;5056215;28;20444;-56
2023/10/07 07:07:11;;;;;;;10.40;4.90;;;16.80;99.90;;;;;;5056091;28;20485;-56
2023/10/07 07:12:28;;;;;;;7.70;4.80;;;17.00;99.80;;;;;;5045461;28;20441;-56
2023/10/07 07:15:04;;;;;;;9.50;4.40;;;17.00;99.50;;;;;;5055890;28;20441;-56
2023/10/07 07:17:35;;;;;;;12.63;5.07;;;17.10;99.30;;;;;;5055801;28;20410;-55
2023/10/07 07:22:50;;;;;;;8.20;4.80;;;17.20;99.30;;;;;;5056209;28;20825;-56
2023/10/07 07:25:22;;;;;;;9.40;4.40;;;17.20;99.10;;;;;;5055782;28;20441;-56
2023/10/07 07:27:49;;;;;;;6.63;4.27;;;17.10;99.20;;;;;;5055609;28;20509;-56
2023/10/07 07:30:29;;;;;;;7.50;4.90;;;17.20;99.20;;;;;;5055598;28;20461;-56
2023/10/07 07:32:58;;;;;;;9.23;4.60;;;17.20;99.20;;;;;;5055825;28;20497;-56
2023/10/07 07:35:38;;;;;;;14.90;5.50;;;17.30;99.30;;;;;;5055025;28;20533;-56
2023/10/07 07:38:11;;;;;;;8.40;4.77;;;17.30;99.20;;;;;;5055575;28;20431;-56
2023/10/07 07:40:41;;;;;;;10.73;5.70;;;17.20;99.10;;;;;;5055407;28;20465;-56
2023/10/07 07:43:08;;;;;;;7.80;4.53;;;17.20;99.10;;;;;;5054976;28;20532;-55
2023/10/07 07:45:36;;;;;;;12.10;5.03;;;17.30;99.20;;;;;;5055220;28;20885;-56
2023/10/07 07:48:06;;;;;;;9.17;4.27;;;17.30;99.00;;;;;;5055497;28;20450;-56
2023/10/07 07:50:35;;;;;;;6.70;4.60;;;17.30;99.10;;;;;;5055244;28;20555;-56
2023/10/07 07:53:06;;;;;;;12.40;5.10;;;17.30;99.10;;;;;;5055490;28;20583;-56
2023/10/07 07:55:34;;;;;;;7.50;4.40;;;17.30;99.20;;;;;;5054986;28;20460;-56
2023/10/07 07:58:02;;;;;;;13.33;5.23;;;17.30;98.90;;;;;;5054857;28;20936;-56
2023/10/07 08:00:31;;;;;;;9.13;4.83;;;17.30;98.80;;;;;;5055158;28;20527;-56
2023/10/07 08:02:59;;;;;;;8.63;4.97;;;17.30;98.90;;;;;;5055110;28;20442;-56
2023/10/07 08:05:28;;;;;;;14.00;4.70;;;17.20;99.00;;;;;;5055040;28;20438;-56
2023/10/07 08:07:55;;;;;;;8.10;5.10;;;17.10;99.20;;;;;;5055021;28;20463;-56
2023/10/07 08:10:23;;;;;;;8.50;4.93;;;17.10;99.40;;;;;;5054979;28;20465;-56
2023/10/07 08:12:50;;;;;;;9.50;4.50;;;17.10;99.50;;;;;;5055012;28;20473;-56
2023/10/07 08:15:22;;;;;;;9.93;4.67;;;17.10;99.80;;;;;;5054721;28;20488;-56
2023/10/07 08:17:51;;;;;;;12.53;4.93;;;17.10;99.70;;;;;;5055006;28;20446;-56
2023/10/07 08:20:27;;;;;;;9.00;4.20;;;17.20;99.80;;;;;;5054759;28;20512;-56
2023/10/07 08:22:55;;;;;;;6.70;3.90;;;17.30;99.70;;;;;;5054726;28;20426;-56
2023/10/07 08:25:36;;;;;;;7.00;4.70;;;17.50;99.30;;;;;;5054839;28;20450;-56
2023/10/07 08:28:18;;;;;;;10.10;4.23;;;17.60;99.10;;;;;;5054694;28;20426;-56
2023/10/07 08:30:46;;;;;;;9.00;4.37;;;17.70;98.50;;;;;;5054178;28;20963;-56
2023/10/07 08:33:14;;;;;;;7.13;4.20;;;17.70;98.60;;;;;;5054687;28;20446;-56
2023/10/07 08:35:44;;;;;;;12.10;5.57;;;17.90;98.70;;;;;;5054162;28;20921;-55
2023/10/07 08:38:21;;;;;;;10.57;4.87;;;18.00;97.90;;;;;;5054470;28;20484;-56
2023/10/07 08:41:04;;;;;;;13.03;5.17;;;18.10;97.70;;;;;;5054663;28;20493;-56
2023/10/07 08:43:37;;;;;;;10.23;4.63;;;18.20;97.40;;;;;;5054226;28;20430;-56
2023/10/07 08:46:07;;;;;;;9.37;4.50;;;18.30;97.30;;;;;;5054113;28;20927;-56
2023/10/07 08:48:38;;;;;;;11.43;4.97;;;18.40;97.00;;;;;;5053771;28;20430;-56
2023/10/07 08:51:14;;;;;;;8.57;4.47;;;18.40;97.20;;;;;;5053826;28;20476;-56
2023/10/07 08:53:41;;;;;;;8.13;4.23;;;18.60;96.80;;;;;;5053846;28;20975;-56
2023/10/07 08:56:10;;;;;;;6.10;4.37;;;18.80;96.90;;;;;;5054012;28;20551;-56
2023/10/07 08:58:41;;;;;;;12.63;4.50;;;18.90;96.20;;;;;;5054117;28;20473;-56
2023/10/07 09:01:16;;;;;;;8.70;4.73;;;19.00;96.20;;;;;;5053920;28;20475;-56
2023/10/07 09:03:47;;;;;;;8.97;4.53;;;18.90;95.70;;;;;;5053687;28;20904;-56
2023/10/07 09:06:15;;;;;;;10.00;5.50;;;18.80;95.40;;;;;;5053628;28;20926;-56
2023/10/07 09:08:43;;;;;;;10.93;5.60;;;18.80;96.20;;;;;;5053823;28;20452;-56
2023/10/07 09:11:12;;;;;;;10.23;4.70;;;18.80;95.70;;;;;;5053747;28;20472;-56
2023/10/07 09:13:39;;;;;;;10.33;4.40;;;18.80;96.00;;;;;;5053692;28;20481;-56
2023/10/07 09:16:10;;;;;;;13.10;5.40;;;18.80;96.00;;;;;;5053472;28;20481;-55
2023/10/07 09:18:40;;;;;;;12.20;4.37;;;18.90;96.40;;;;;;5053756;28;20429;-56
2023/10/07 09:21:11;;;;;;;10.40;4.23;;;18.90;95.80;;;;;;5053938;28;20465;-56
2023/10/07 09:23:47;;;;;;;10.60;5.10;;;18.90;95.70;;;;;;5053579;28;20479;-56
2023/10/07 09:26:21;;;;;;;13.00;4.67;;;18.90;95.70;;;;;;5054317;28;20441;-56
2023/10/07 09:28:59;;;;;;;17.73;4.37;;;18.90;95.50;;;;;;5053546;28;20874;-56
2023/10/07 09:31:27;;;;;;;8.00;5.20;;;18.90;96.00;;;;;;5053307;28;20527;-56
2023/10/07 09:33:55;;;;;;;11.03;4.47;;;18.90;96.00;;;;;;5053223;28;20533;-56
2023/10/07 09:36:33;;;;;;;8.90;4.97;;;19.00;95.60;;;;;;5053366;28;20485;-57
2023/10/07 09:41:55;;;;;;;17.13;5.80;;;19.20;95.70;;;;;;5053169;28;20508;-56
2023/10/07 09:44:26;;;;;;;8.40;4.63;;;19.20;95.30;;;;;;5053332;28;20429;-55
2023/10/07 09:46:53;;;;;;;8.73;5.30;;;19.40;95.40;;;;;;5053373;28;20456;-56
2023/10/07 09:49:20;;;;;;;11.13;5.17;;;19.50;94.60;;;;;;5053220;28;20822;-56
2023/10/07 09:51:50;;;;;;;13.40;4.13;;;19.70;94.40;;;;;;5052840;28;20548;-56
2023/10/07 09:54:47;;;;;;;8.70;4.43;;;19.80;94.20;;;;;;5053247;28;20448;-56
2023/10/07 09:57:29;;;;;;;8.57;4.73;;;20.00;93.90;;;;;;5053210;28;20549;-56
2023/10/07 10:00:39;;;;;;;12.80;4.40;;;20.20;92.20;;;;;;5059281;28;20894;-56
2023/10/07 10:03:45;;;;;;;11.97;4.17;;;20.30;92.30;;;;;;5059863;28;20483;-56
2023/10/07 10:06:28;;;;;;;11.17;4.80;;;20.60;91.90;;;;;;5059805;28;20487;-56
2023/10/07 10:08:57;;;;;;;8.07;4.30;;;21.00;91.40;;;;;;5059391;28;20938;-55
2023/10/07 10:11:44;;;;;;;11.90;3.80;;;21.20;90.20;;;;;;5059686;28;20465;-56
2023/10/07 10:14:19;;;;;;;9.50;3.73;;;21.30;88.50;;;;;;5059638;28;20523;-56
2023/10/07 10:16:47;;;;;;;8.47;3.60;;;21.40;87.90;;;;;;5059341;28;20974;-56
2023/10/07 10:19:25;;;;;;;9.93;3.30;;;21.60;86.90;;;;;;5059662;28;20441;-56
2023/10/07 10:21:52;;;;;;;6.77;3.50;;;21.90;84.50;;;;;;5059918;28;20479;-57
2023/10/07 10:24:24;;;;;;;7.90;3.37;;;21.80;83.40;;;;;;5059549;28;20476;-56
2023/10/07 10:27:04;;;;;;;9.17;3.57;;;21.80;83.20;;;;;;5059708;28;20428;-56
2023/10/07 10:29:34;;;;;;;9.90;3.90;;;21.90;82.80;;;;;;5059651;28;20514;-56
2023/10/07 10:32:07;;;;;;;7.53;3.10;;;22.40;82.50;;;;;;5059852;28;20540;-56
2023/10/07 10:34:35;;;;;;;8.73;3.17;;;22.80;79.90;;;;;;5060080;28;20487;-56
2023/10/07 10:37:05;;;;;;;10.17;3.20;;;23.20;79.00;;;;;;5059464;28;20571;-56
2023/10/07 10:39:32;;;;;;;7.40;3.87;;;23.70;77.50;;;;;;5059450;28;20548;-56
2023/10/07 10:42:09;;;;;;;5.20;2.80;;;23.80;73.40;;;;;;5059583;28;20441;-56
2023/10/07 10:44:37;;;;;;;6.83;3.20;;;24.00;72.90;;;;;;5059645;28;20433;-57
2023/10/07 10:47:04;;;;;;;4.40;3.17;;;24.10;71.40;;;;;;5059413;28;20967;-56
2023/10/07 10:49:31;;;;;;;4.80;3.23;;;24.10;69.90;;;;;;5059358;28;20469;-57
2023/10/07 10:52:02;;;;;;;8.70;3.50;;;24.40;71.20;;;;;;5059136;28;20527;-56
2023/10/07 10:54:29;;;;;;;11.93;4.00;;;24.50;68.20;;;;;;5059886;28;20838;-57
2023/10/07 10:56:58;;;;;;;9.40;3.50;;;24.60;68.80;;;;;;5059734;28;20484;-56
2023/10/07 10:59:42;;;;;;;6.40;3.33;;;24.40;65.90;;;;;;5059330;28;20472;-56
2023/10/07 11:02:11;;;;;;;10.43;4.40;;;24.10;68.00;;;;;;5059255;28;20801;-57
2023/10/07 11:04:38;;;;;;;4.40;3.20;;;24.10;67.70;;;;;;5059316;28;20449;-56
2023/10/07 11:07:07;;;;;;;11.90;3.20;;;24.40;65.60;;;;;;5059333;28;20441;-57
2023/10/07 11:09:37;;;;;;;10.83;3.57;;;24.50;65.20;;;;;;5057844;28;20465;-56
2023/10/07 11:12:09;;;;;;;7.60;3.13;;;25.00;66.00;;;;;;5056065;28;20878;-56
2023/10/07 11:14:38;;;;;;;8.13;3.33;;;25.30;63.70;;;;;;5056021;28;20487;-56
2023/10/07 11:17:04;;;;;;;5.30;2.90;;;25.40;62.40;;;;;;5056037;28;20489;-56
2023/10/07 11:19:31;;;;;;;12.50;4.20;;;25.70;60.10;;;;;;5055902;28;20465;-56
2023/10/07 11:21:58;;;;;;;6.53;3.70;;;25.70;60.80;;;;;;5055933;28;20437;-56
2023/10/07 11:24:26;;;;;;;10.50;3.17;;;25.90;59.80;;;;;;5055821;28;20811;-56
2023/10/07 11:26:56;;;;;;;6.67;3.37;;;26.20;59.10;;;;;;5055776;28;20469;-56
2023/10/07 11:29:29;;;;;;;9.70;3.43;;;26.80;57.90;;;;;;5055648;28;20441;-58
2023/10/07 11:32:01;;;;;;;8.97;3.60;;;27.10;56.50;;;;;;5055695;28;20434;-57
2023/10/07 11:34:33;;;;;;;6.30;3.70;;;27.30;55.50;;;;;;5055673;28;20466;-57
2023/10/07 11:37:10;;;;;;;8.20;3.57;;;27.50;54.50;;;;;;5055567;28;20485;-58
2023/10/07 11:39:43;;;;;;;6.23;3.90;;;27.70;54.70;;;;;;5055491;28;20886;-58
2023/10/07 11:42:12;;;;;;;8.00;3.23;;;27.80;52.50;;;;;;5055185;28;20430;-57
2023/10/07 11:44:39;;;;;;;7.07;3.87;;;28.00;52.40;;;;;;5055469;28;20466;-58
2023/10/07 11:47:07;;;;;;;7.47;3.23;;;28.00;51.90;;;;;;5055395;28;20819;-58
2023/10/07 11:49:35;;;;;;;5.63;3.00;;;28.00;52.10;;;;;;5055352;28;20523;-57
2023/10/07 11:52:04;;;;;;;5.30;3.23;;;28.10;52.00;;;;;;5055332;28;20449;-57
2023/10/07 11:54:32;;;;;;;6.10;3.80;;;28.40;51.80;;;;;;5055083;28;20445;-58
2023/10/07 11:56:58;;;;;;;8.23;3.70;;;28.40;50.10;;;;;;5055208;28;20513;-57
2023/10/07 11:59:25;;;;;;;6.80;3.23;;;28.20;50.10;;;;;;5055376;28;20468;-58
2023/10/07 12:01:53;;;;;;;6.37;3.10;;;28.00;50.20;;;;;;5055197;28;20454;-58
2023/10/07 12:04:21;;;;;;;8.70;3.80;;;28.00;51.00;;;;;;5055320;28;20445;-58
2023/10/07 12:06:50;;;;;;;15.33;5.80;;;28.40;52.60;;;;;;5054802;28;20838;-58
2023/10/07 12:09:21;;;;;;;9.27;3.00;;;28.50;50.50;;;;;;5054970;28;20453;-58
2023/10/07 12:11:49;;;;;;;5.90;3.50;;;28.50;48.50;;;;;;5055076;28;20513;-58
2023/10/07 12:14:18;;;;;;;9.70;3.37;;;28.30;49.90;;;;;;5054858;28;20471;-57
2023/10/07 12:16:45;;;;;;;3.90;3.13;;;28.50;50.50;;;;;;5054492;28;20985;-58
2023/10/07 12:19:17;;;;;;;5.13;3.20;;;28.90;48.00;;;;;;5055627;28;20445;-58
2023/10/07 12:21:45;;;;;;;7.30;3.10;;;29.00;47.70;;;;;;5053581;28;20479;-58
2023/10/07 12:24:12;;;;;;;4.13;2.80;;;29.10;46.80;;;;;;5054865;28;20445;-58
2023/10/07 12:26:39;;;;;;;3.87;2.83;;;29.20;46.30;;;;;;5054688;28;20950;-58
2023/10/07 12:29:06;;;;;;;6.70;2.90;;;29.10;46.60;;;;;;5054643;28;20469;-58
2023/10/07 12:31:33;;;;;;;4.80;3.30;;;29.30;45.90;;;;;;5054463;28;20473;-57
2023/10/07 12:34:00;;;;;;;3.47;2.40;;;29.30;46.80;;;;;;5054691;28;20445;-58
2023/10/07 12:36:29;;;;;;;6.60;3.37;;;29.60;46.80;;;;;;5054223;28;20966;-58
2023/10/07 12:38:57;;;;;;;6.03;2.87;;;29.90;45.80;;;;;;5054663;28;20485;-58
2023/10/07 12:41:24;;;;;;;8.17;4.20;;;30.10;45.30;;;;;;5054618;28;20483;-56
2023/10/07 12:43:51;;;;;;;8.33;3.57;;;30.30;44.50;;;;;;5054402;28;20447;-56
2023/10/07 12:46:18;;;;;;;5.20;3.60;;;30.30;44.30;;;;;;5054432;28;20441;-56
2023/10/07 12:48:46;;;;;;;5.00;3.77;;;29.60;44.90;;;;;;5054401;28;20449;-56
2023/10/07 12:51:13;;;;;;;3.30;3.00;;;29.50;44.50;;;;;;5053911;28;21008;-56
2023/10/07 12:53:40;;;;;;;5.67;3.60;;;29.40;44.60;;;;;;5054528;28;20445;-55
2023/10/07 12:56:17;;;;;;;7.40;2.97;;;29.50;45.70;;;;;;5054407;28;20472;-56
2023/10/07 12:58:45;;;;;;;5.87;3.50;;;29.70;44.50;;;;;;5054293;28;20469;-56
2023/10/07 13:01:12;;;;;;;5.00;2.60;;;29.50;44.80;;;;;;5053955;28;20469;-56
2023/10/07 13:03:43;;;;;;;6.60;3.77;;;29.80;45.30;;;;;;5054003;28;20858;-56
2023/10/07 13:06:10;;;;;;;10.50;3.27;;;30.20;44.30;;;;;;5053710;28;20779;-56
2023/10/07 13:08:38;;;;;;;6.03;3.70;;;30.30;43.60;;;;;;5053613;28;20879;-56
2023/10/07 13:11:11;;;;;;;4.30;3.60;;;30.30;43.40;;;;;;5053940;28;20556;-55